createdAt,value
2023-05-25T00:10:01.987Z,4.00
2023-05-25T00:20:07.414Z,3.40
2023-05-25T00:30:10.606Z,2.90
2023-05-25T00:40:16.520Z,3.90
2023-05-25T00:50:30.574Z,4.38
2023-05-25T01:00:36.907Z,3.65
2023-05-25T01:10:42.258Z,3.70
2023-05-25T01:20:59.766Z,3.25
2023-05-25T01:31:04.095Z,2.78
2023-05-25T01:41:08.149Z,3.97
2023-05-25T01:51:20.302Z,4.40
2023-05-25T02:01:25.161Z,3.72
2023-05-25T02:11:27.865Z,3.35
2023-05-25T02:21:32.643Z,3.47
2023-05-25T02:31:35.452Z,3.60
2023-05-25T02:41:40.125Z,3.33
2023-05-25T02:51:42.832Z,3.65
2023-05-25T03:01:47.099Z,3.72
2023-05-25T03:11:49.872Z,3.33
2023-05-25T03:21:54.003Z,3.30
2023-05-25T03:31:56.988Z,3.50
2023-05-25T03:42:01.561Z,3.45
2023-05-25T03:52:06.118Z,3.50
2023-05-25T04:02:10.145Z,4.07
2023-05-25T04:12:12.893Z,4.68
2023-05-25T04:22:16.981Z,3.97
2023-05-25T04:32:19.654Z,4.57
2023-05-25T04:42:24.222Z,4.60
2023-05-25T04:52:26.899Z,5.47
2023-05-25T05:02:30.961Z,4.68
2023-05-25T05:12:33.621Z,5.45
2023-05-25T05:22:38.622Z,5.13
2023-05-25T05:32:41.541Z,4.38
2023-05-25T05:42:45.592Z,4.68
2023-05-25T05:52:48.250Z,5.05
2023-05-25T06:02:52.428Z,3.80
2023-05-25T06:12:55.102Z,4.05
2023-05-25T06:22:59.093Z,3.25
2023-05-25T06:33:01.936Z,3.38
2023-05-25T06:43:06.081Z,3.13
2023-05-25T06:53:10.852Z,3.50
2023-05-25T07:03:14.850Z,3.70
2023-05-25T07:13:17.542Z,3.17
2023-05-25T07:23:21.710Z,3.10
2023-05-25T07:33:24.394Z,3.33
2023-05-25T07:43:28.756Z,3.45
2023-05-25T07:53:31.459Z,2.95
2023-05-25T08:03:48.024Z,4.00
2023-05-25T08:13:52.218Z,3.33
2023-05-25T08:23:56.871Z,3.22
2023-05-25T08:34:00.421Z,3.22
2023-05-25T08:44:08.001Z,3.38
2023-05-25T08:54:13.771Z,2.72
2023-05-25T09:04:19.645Z,3.00
2023-05-25T09:14:22.997Z,3.13
2023-05-25T09:24:27.177Z,3.47
2023-05-25T09:34:33.897Z,2.83
2023-05-25T09:44:38.362Z,3.08
2023-05-25T09:54:41.084Z,3.28
2023-05-25T10:04:46.282Z,3.50
2023-05-25T10:14:51.455Z,4.50
2023-05-25T10:25:00.756Z,3.20
2023-05-25T10:35:05.970Z,4.30
2023-05-25T10:45:11.300Z,3.65
2023-05-25T10:55:13.966Z,3.70
2023-05-25T11:05:36.190Z,3.70
2023-05-25T11:15:40.121Z,4.38
2023-05-25T11:25:45.020Z,3.22
2023-05-25T11:35:48.849Z,3.92
2023-05-25T11:45:57.813Z,4.22
2023-05-25T11:56:07.987Z,3.92
2023-05-25T12:06:25.376Z,4.32
2023-05-25T12:16:28.720Z,3.93
2023-05-25T12:26:33.217Z,4.55
2023-05-25T12:36:44.128Z,4.20
2023-05-25T12:46:48.546Z,4.45
2023-05-25T12:56:57.564Z,4.72
2023-05-25T13:07:01.669Z,4.65
2023-05-25T13:17:04.341Z,3.97
2023-05-25T13:27:08.320Z,4.70
2023-05-25T13:37:10.950Z,4.63
2023-05-25T13:47:15.013Z,4.75
2023-05-25T13:57:17.686Z,4.32
2023-05-25T14:07:21.686Z,3.63
2023-05-25T14:17:25.153Z,4.40
2023-05-25T14:27:29.153Z,3.80
2023-05-25T14:37:31.807Z,3.80
2023-05-25T14:47:36.256Z,3.47
2023-05-25T14:57:38.977Z,3.78
2023-05-25T15:07:42.989Z,3.50
2023-05-25T15:17:45.869Z,3.17
2023-05-25T15:27:49.956Z,3.25
2023-05-25T15:37:52.677Z,3.88
2023-05-25T15:47:56.733Z,3.42
2023-05-25T15:57:59.395Z,2.92
2023-05-25T16:08:03.390Z,2.55
2023-05-25T16:18:06.197Z,2.97
2023-05-25T16:28:10.944Z,2.80
2023-05-25T16:38:13.654Z,2.90
2023-05-25T16:48:17.715Z,2.53
2023-05-25T16:58:20.627Z,2.67
2023-05-25T17:08:24.624Z,2.38
2023-05-25T17:18:28.584Z,2.67
2023-05-25T17:28:32.937Z,3.08
2023-05-25T17:38:37.603Z,3.70
2023-05-25T17:48:41.589Z,3.10
2023-05-25T17:58:47.347Z,3.42
2023-05-25T18:08:51.612Z,3.58
2023-05-25T18:18:54.281Z,2.90
2023-05-25T18:28:58.277Z,2.80
2023-05-25T18:39:00.943Z,3.65
2023-05-25T18:49:05.312Z,3.25
2023-05-25T18:59:08.333Z,2.63
2023-05-25T19:09:13.391Z,2.55
2023-05-25T19:19:16.078Z,4.18
2023-05-25T19:29:20.101Z,3.10
2023-05-25T19:39:22.804Z,3.20
2023-05-25T19:49:27.204Z,4.50
2023-05-25T19:59:31.031Z,2.83
2023-05-25T20:09:35.683Z,3.50
2023-05-25T20:19:38.333Z,2.17
2023-05-25T20:29:42.722Z,3.67
2023-05-25T20:39:45.446Z,3.88
2023-05-25T20:49:49.414Z,3.05
2023-05-25T20:59:54.016Z,3.30
2023-05-25T21:09:59.312Z,2.95
2023-05-25T21:20:01.999Z,2.97
2023-05-25T21:30:06.988Z,3.22
2023-05-25T21:40:10.394Z,2.45
2023-05-25T21:50:14.586Z,3.15
2023-05-25T22:00:18.128Z,3.88
2023-05-25T22:10:22.109Z,3.15
2023-05-25T22:20:24.792Z,2.63
2023-05-25T22:30:28.922Z,3.47
2023-05-25T22:40:31.686Z,2.60
2023-05-25T22:50:35.864Z,3.38
2023-05-25T23:00:38.606Z,3.25
2023-05-25T23:10:42.726Z,3.63
2023-05-25T23:20:45.442Z,2.97
2023-05-25T23:30:49.852Z,2.83
2023-05-25T23:40:52.496Z,2.35
2023-05-25T23:50:56.585Z,2.80
